Time;durP1;ratioP1;P1;durP2;ratioP2;P2;SDS_P1;SDS_P2;PMS_P1;PMS_P2;Temp;Humidity;BMP_temperature;BMP_pressure;BME280_temperature;BME280_humidity;BME280_pressure;Samples;Min_cycle;Max_cycle;Signal;HPM_P1;HPM_P2
2023/04/30 00:00:09;;;;;;;27.80;14.90;;;11.00;99.90;;;;;;5071962;28;20115;-81
2023/04/30 00:02:35;;;;;;;21.83;15.13;;;11.10;99.90;;;;;;5071964;28;20111;-78
2023/04/30 00:05:01;;;;;;;21.95;14.43;;;11.10;99.90;;;;;;5072855;28;20096;-78
2023/04/30 00:07:26;;;;;;;23.23;13.27;;;11.10;99.90;;;;;;5071121;28;20515;-79
2023/04/30 00:09:52;;;;;;;21.77;13.55;;;11.10;99.90;;;;;;5070930;28;20409;-80
2023/04/30 00:12:18;;;;;;;27.48;14.10;;;11.00;99.90;;;;;;5071296;28;20021;-79
2023/04/30 00:14:44;;;;;;;28.45;15.60;;;10.90;99.90;;;;;;5071218;28;20112;-79
2023/04/30 00:17:10;;;;;;;22.98;13.82;;;10.80;99.90;;;;;;5071358;28;20058;-80
2023/04/30 00:19:35;;;;;;;23.95;14.98;;;10.90;99.90;;;;;;5073175;28;20024;-80
2023/04/30 00:22:01;;;;;;;33.85;14.18;;;11.00;99.90;;;;;;5074239;28;20031;-80
2023/04/30 00:24:27;;;;;;;31.17;14.10;;;11.10;99.90;;;;;;5076028;28;20020;-81
2023/04/30 00:26:53;;;;;;;36.03;17.92;;;11.10;99.90;;;;;;5074635;28;20071;-80
2023/04/30 00:29:19;;;;;;;27.10;14.73;;;11.20;99.90;;;;;;5074868;28;20099;-80
2023/04/30 00:31:44;;;;;;;30.35;15.30;;;11.10;99.90;;;;;;5076503;28;20132;-79
2023/04/30 00:34:10;;;;;;;20.35;13.63;;;11.10;99.90;;;;;;5074965;28;20024;-81
2023/04/30 00:36:36;;;;;;;19.40;13.10;;;11.10;99.90;;;;;;5075808;28;20036;-81
2023/04/30 00:39:02;;;;;;;17.42;13.43;;;11.10;99.90;;;;;;5074977;28;20024;-81
2023/04/30 00:41:29;;;;;;;22.15;13.88;;;11.00;99.90;;;;;;5076103;28;20055;-80
2023/04/30 00:43:55;;;;;;;25.65;13.85;;;10.90;99.90;;;;;;5074956;28;20136;-77
2023/04/30 00:46:20;;;;;;;22.55;13.95;;;10.80;99.90;;;;;;5076341;28;20450;-79
2023/04/30 00:48:46;;;;;;;21.35;13.85;;;10.80;99.90;;;;;;5075176;28;20032;-80
2023/04/30 00:51:12;;;;;;;20.95;13.65;;;10.80;99.90;;;;;;5074615;28;20025;-79
2023/04/30 00:53:40;;;;;;;22.98;13.27;;;10.90;99.90;;;;;;5074836;28;20021;-80
2023/04/30 00:56:08;;;;;;;24.17;13.20;;;10.80;99.90;;;;;;5075599;28;20344;-80
2023/04/30 00:58:34;;;;;;;20.33;13.10;;;10.80;99.90;;;;;;5074472;28;20480;-80
2023/04/30 01:01:01;;;;;;;22.40;12.02;;;10.80;99.90;;;;;;5073995;28;20052;-81
2023/04/30 01:03:28;;;;;;;19.83;13.23;;;10.90;99.90;;;;;;5074714;28;20099;-80
2023/04/30 01:05:54;;;;;;;27.42;13.95;;;10.90;99.90;;;;;;5073416;28;20063;-79
2023/04/30 01:08:20;;;;;;;17.48;12.10;;;10.80;99.90;;;;;;5075444;28;20467;-80
2023/04/30 01:11:23;;;;;;;16.88;12.25;;;10.80;99.90;;;;;;5075329;28;20071;-81
2023/04/30 01:14:03;;;;;;;18.50;11.77;;;10.80;99.90;;;;;;5040236;28;20107;-80
2023/04/30 01:16:34;;;;;;;21.25;12.55;;;10.80;99.90;;;;;;5075460;28;20032;-81
2023/04/30 01:19:10;;;;;;;21.52;13.20;;;10.80;99.90;;;;;;5075149;28;20035;-82
2023/04/30 01:21:40;;;;;;;27.77;14.07;;;10.80;99.90;;;;;;5073571;28;20025;-80
2023/04/30 01:24:28;;;;;;;24.75;12.90;;;10.70;99.90;;;;;;5074440;28;20108;-81
2023/04/30 01:27:15;;;;;;;19.40;12.68;;;10.70;99.90;;;;;;5070423;28;20467;-81
2023/04/30 01:29:42;;;;;;;21.85;12.77;;;10.80;99.90;;;;;;5074324;28;20031;-79
2023/04/30 01:32:10;;;;;;;19.88;12.85;;;10.80;99.90;;;;;;5072689;28;20348;-80
2023/04/30 01:34:36;;;;;;;21.10;12.93;;;10.80;99.90;;;;;;5073429;28;20032;-81
2023/04/30 01:37:25;;;;;;;14.88;11.88;;;10.80;99.90;;;;;;5073349;28;20025;-80
2023/04/30 01:40:15;;;;;;;23.70;13.50;;;10.70;99.90;;;;;;5074423;28;20455;-80
2023/04/30 01:42:53;;;;;;;21.33;13.57;;;10.70;99.90;;;;;;5074635;28;20044;-80
2023/04/30 01:45:46;;;;;;;18.75;12.27;;;10.70;99.90;;;;;;5074053;28;20029;-81
2023/04/30 01:48:24;;;;;;;19.30;12.05;;;10.60;99.90;;;;;;5072652;28;20017;-79
2023/04/30 01:50:57;;;;;;;23.33;11.73;;;10.50;99.90;;;;;;5073234;28;20028;-80
2023/04/30 01:53:37;;;;;;;18.17;12.10;;;10.40;99.90;;;;;;5072595;28;20455;-81
2023/04/30 01:56:08;;;;;;;18.70;11.45;;;10.40;99.90;;;;;;5067174;28;20029;-80
2023/04/30 01:58:36;;;;;;;15.40;10.38;;;10.30;99.90;;;;;;5070739;28;20023;-80
2023/04/30 02:01:02;;;;;;;13.30;10.30;;;10.10;99.90;;;;;;5073850;28;20131;-80
2023/04/30 02:03:28;;;;;;;13.25;10.75;;;10.00;99.90;;;;;;5072855;28;20025;-80
2023/04/30 02:05:54;;;;;;;14.32;10.68;;;9.90;99.90;;;;;;5072684;28;20478;-79
2023/04/30 02:08:20;;;;;;;14.38;10.30;;;9.80;99.90;;;;;;5073490;28;20131;-80
2023/04/30 02:10:46;;;;;;;12.45;10.38;;;9.80;99.90;;;;;;5073669;28;20119;-78
2023/04/30 02:13:12;;;;;;;17.90;11.07;;;9.80;99.90;;;;;;5073824;28;20035;-80
2023/04/30 02:15:37;;;;;;;22.88;11.23;;;9.80;99.90;;;;;;5073305;28;20044;-81
2023/04/30 02:18:03;;;;;;;17.40;11.18;;;9.90;99.90;;;;;;5074016;28;20099;-81
2023/04/30 02:20:29;;;;;;;17.17;10.55;;;9.90;99.90;;;;;;5074017;28;20451;-81
2023/04/30 02:22:55;;;;;;;16.58;11.20;;;9.90;99.90;;;;;;5072177;28;20031;-79
2023/04/30 02:25:20;;;;;;;14.40;11.02;;;10.00;99.90;;;;;;5073721;28;20035;-77
2023/04/30 02:27:46;;;;;;;15.73;11.15;;;10.00;99.90;;;;;;5073744;28;20020;-78
2023/04/30 02:30:12;;;;;;;19.00;11.48;;;10.00;99.90;;;;;;5072449;28;20020;-76
2023/04/30 02:32:38;;;;;;;19.05;11.95;;;10.00;99.90;;;;;;5071964;28;20344;-78
2023/04/30 02:35:04;;;;;;;14.30;10.30;;;10.00;99.90;;;;;;5072100;28;20123;-76
2023/04/30 02:37:30;;;;;;;17.17;11.43;;;10.00;99.90;;;;;;5072336;28;20028;-77
2023/04/30 02:39:56;;;;;;;16.25;10.82;;;9.90;99.90;;;;;;5073280;28;20527;-78
2023/04/30 02:42:22;;;;;;;13.52;10.43;;;9.90;99.90;;;;;;5072414;28;20044;-79
2023/04/30 02:44:47;;;;;;;12.93;10.25;;;9.90;99.90;;;;;;5073489;28;20363;-79
2023/04/30 02:47:14;;;;;;;15.07;10.63;;;9.90;99.90;;;;;;5073130;28;20587;-79
2023/04/30 02:49:39;;;;;;;15.82;10.43;;;9.80;99.90;;;;;;5071602;28;20031;-79
2023/04/30 02:52:08;;;;;;;14.98;10.43;;;9.70;99.90;;;;;;5073685;28;20020;-78
2023/04/30 02:54:34;;;;;;;16.20;10.52;;;9.50;99.90;;;;;;5073014;28;20028;-78
2023/04/30 02:57:00;;;;;;;11.88;9.82;;;9.50;99.90;;;;;;5071610;28;20032;-77
2023/04/30 02:59:26;;;;;;;16.90;11.05;;;9.40;99.90;;;;;;5073374;28;20025;-79
2023/04/30 03:01:51;;;;;;;13.73;10.55;;;9.50;99.90;;;;;;5072850;28;20047;-78
2023/04/30 03:04:17;;;;;;;18.80;10.80;;;9.50;99.90;;;;;;5073407;28;20107;-80
2023/04/30 03:06:43;;;;;;;18.95;10.63;;;9.50;99.90;;;;;;5072704;28;20020;-77
2023/04/30 03:09:09;;;;;;;13.52;10.02;;;9.50;99.90;;;;;;5073698;28;20020;-77
2023/04/30 03:11:36;;;;;;;13.77;10.73;;;9.50;99.90;;;;;;5073005;28;20037;-78
2023/04/30 03:14:03;;;;;;;18.50;11.70;;;9.40;99.90;;;;;;5073577;28;20048;-78
2023/04/30 03:16:29;;;;;;;15.88;11.15;;;9.50;99.90;;;;;;5073640;28;20150;-78
2023/04/30 03:18:56;;;;;;;14.23;10.13;;;9.60;99.90;;;;;;5073392;28;20501;-77
2023/04/30 03:21:22;;;;;;;17.42;10.88;;;9.60;99.90;;;;;;5073392;28;20025;-79
2023/04/30 03:23:47;;;;;;;15.30;10.48;;;9.70;99.90;;;;;;5073380;28;20431;-78
2023/04/30 03:26:13;;;;;;;15.40;10.30;;;9.80;99.90;;;;;;5073520;28;20028;-77
2023/04/30 03:28:39;;;;;;;17.38;10.77;;;9.70;99.90;;;;;;5073515;28;20035;-78
2023/04/30 03:31:05;;;;;;;15.50;9.75;;;9.80;99.90;;;;;;5072980;28;20031;-77
2023/04/30 03:33:31;;;;;;;19.23;11.73;;;9.80;99.90;;;;;;5073504;28;20505;-80
2023/04/30 03:35:58;;;;;;;17.90;10.95;;;9.80;99.90;;;;;;5073175;28;20025;-78
2023/04/30 03:38:23;;;;;;;15.95;11.50;;;9.90;99.90;;;;;;5071917;28;20086;-78
2023/04/30 03:40:49;;;;;;;17.88;11.95;;;10.00;99.90;;;;;;5072400;28;20028;-78
2023/04/30 03:43:15;;;;;;;19.67;12.23;;;10.00;99.90;;;;;;5073579;28;20085;-77
2023/04/30 03:45:41;;;;;;;15.38;9.88;;;10.00;99.90;;;;;;5072805;28;20024;-78
2023/04/30 03:48:06;;;;;;;14.55;10.02;;;10.00;99.90;;;;;;5072692;28;20016;-77
2023/04/30 03:50:32;;;;;;;12.85;10.50;;;10.00;99.90;;;;;;5073055;28;20119;-78
2023/04/30 03:52:58;;;;;;;16.15;10.60;;;10.10;99.90;;;;;;5072486;28;20067;-78
2023/04/30 03:55:24;;;;;;;21.75;10.18;;;10.20;99.90;;;;;;5076651;28;20116;-78
2023/04/30 03:57:50;;;;;;;13.10;10.52;;;10.20;99.90;;;;;;5068574;28;20037;-77
2023/04/30 04:00:16;;;;;;;14.60;11.05;;;10.30;99.90;;;;;;5076407;28;20029;-77
2023/04/30 04:02:42;;;;;;;11.65;9.45;;;10.40;99.90;;;;;;5074876;28;20031;-78
2023/04/30 04:05:08;;;;;;;11.98;9.48;;;10.40;99.90;;;;;;5076192;28;20024;-77
2023/04/30 04:07:34;;;;;;;13.73;10.18;;;10.40;99.90;;;;;;5075785;28;20035;-77
2023/04/30 04:10:00;;;;;;;16.23;9.50;;;10.40;99.90;;;;;;5074966;28;20021;-77
2023/04/30 04:12:25;;;;;;;15.70;10.10;;;10.40;99.90;;;;;;5076144;28;20020;-77
2023/04/30 04:14:51;;;;;;;14.75;9.82;;;10.40;99.90;;;;;;5075480;28;20046;-78
2023/04/30 04:17:17;;;;;;;12.43;9.90;;;10.50;99.90;;;;;;5076274;28;20020;-77
2023/04/30 04:19:43;;;;;;;17.08;11.32;;;10.50;99.90;;;;;;5076145;28;20025;-78
2023/04/30 04:22:09;;;;;;;14.63;11.45;;;10.60;99.90;;;;;;5071299;28;20027;-77
2023/04/30 04:24:35;;;;;;;18.90;11.18;;;10.60;99.90;;;;;;5075043;28;20126;-78
2023/04/30 04:27:04;;;;;;;16.25;11.73;;;10.70;99.90;;;;;;5075447;28;20024;-79
2023/04/30 04:29:31;;;;;;;18.00;11.30;;;10.80;99.90;;;;;;5065713;28;20107;-78
2023/04/30 04:31:59;;;;;;;19.17;11.50;;;10.80;99.90;;;;;;5076441;28;20030;-78
2023/04/30 04:34:25;;;;;;;21.58;13.00;;;10.90;99.90;;;;;;5076151;28;20077;-78
2023/04/30 04:36:51;;;;;;;16.50;10.90;;;11.00;99.90;;;;;;5076186;28;20025;-79
2023/04/30 04:39:17;;;;;;;12.23;9.15;;;11.10;99.90;;;;;;5076352;28;20358;-79
2023/04/30 04:41:43;;;;;;;15.65;9.98;;;11.20;99.90;;;;;;5074485;28;20132;-79
2023/04/30 04:44:08;;;;;;;13.70;10.18;;;11.30;99.90;;;;;;5075060;28;20405;-79
2023/04/30 04:46:37;;;;;;;17.23;10.00;;;11.50;99.90;;;;;;5075838;28;20021;-80
2023/04/30 04:49:03;;;;;;;12.10;9.90;;;11.70;99.90;;;;;;5074615;28;20027;-81
2023/04/30 04:51:29;;;;;;;12.63;9.90;;;11.90;99.90;;;;;;5074547;28;20034;-79
2023/04/30 04:53:54;;;;;;;12.82;9.80;;;12.00;99.90;;;;;;5075926;28;20025;-81
2023/04/30 04:56:20;;;;;;;17.88;9.70;;;12.20;99.90;;;;;;5075337;28;20037;-80
2023/04/30 04:58:46;;;;;;;12.48;9.68;;;12.30;99.90;;;;;;5075335;28;20390;-80
2023/04/30 05:01:12;;;;;;;14.43;9.05;;;12.40;99.90;;;;;;5075825;28;20024;-80
2023/04/30 05:03:38;;;;;;;13.30;10.02;;;12.50;99.90;;;;;;5073718;28;20063;-81
2023/04/30 05:06:04;;;;;;;13.00;9.95;;;12.50;99.90;;;;;;5074333;28;20021;-80
2023/04/30 05:08:30;;;;;;;14.75;10.40;;;12.60;99.90;;;;;;5074792;28;20417;-81
2023/04/30 05:10:56;;;;;;;12.60;9.18;;;12.70;99.90;;;;;;5074618;28;20020;-81
2023/04/30 05:13:22;;;;;;;12.98;9.48;;;12.80;99.90;;;;;;5073636;28;20065;-80
2023/04/30 05:15:52;;;;;;;14.15;8.90;;;12.90;99.90;;;;;;5074850;28;20111;-83
2023/04/30 05:18:19;;;;;;;11.25;9.27;;;13.00;99.90;;;;;;5073873;28;20028;-81
2023/04/30 05:20:44;;;;;;;11.90;8.18;;;13.10;99.90;;;;;;5073521;28;20427;-80
2023/04/30 05:23:11;;;;;;;9.00;7.80;;;13.00;99.90;;;;;;5074715;28;20107;-80
2023/04/30 05:25:37;;;;;;;16.13;9.32;;;12.90;99.90;;;;;;5075071;28;20030;-81
2023/04/30 05:28:03;;;;;;;13.05;9.25;;;12.90;99.90;;;;;;5072990;28;20103;-81
2023/04/30 05:30:29;;;;;;;11.32;9.15;;;13.00;99.90;;;;;;5074691;28;20024;-81
2023/04/30 05:32:56;;;;;;;12.18;9.15;;;13.10;99.90;;;;;;5073464;28;20082;-82
2023/04/30 05:35:22;;;;;;;16.50;8.73;;;13.30;99.90;;;;;;5074863;28;20375;-83
2023/04/30 05:37:48;;;;;;;11.05;8.98;;;13.40;99.90;;;;;;5074653;28;20031;-81
2023/04/30 05:40:14;;;;;;;13.95;7.95;;;13.50;99.90;;;;;;5075404;28;20059;-82
2023/04/30 05:42:42;;;;;;;13.65;8.90;;;13.70;99.90;;;;;;5073431;28;20045;-83
2023/04/30 05:45:09;;;;;;;11.25;8.05;;;13.90;99.90;;;;;;5073491;28;20082;-81
2023/04/30 05:47:35;;;;;;;11.43;8.75;;;14.00;99.90;;;;;;5073644;28;20039;-82
2023/04/30 05:50:01;;;;;;;12.27;9.52;;;14.20;99.90;;;;;;5073636;28;20024;-81
2023/04/30 05:52:26;;;;;;;12.63;8.70;;;14.40;99.90;;;;;;5073221;28;20024;-81
2023/04/30 05:54:52;;;;;;;12.07;8.93;;;14.50;99.90;;;;;;5073499;28;20028;-80
2023/04/30 05:57:19;;;;;;;11.82;8.32;;;14.50;99.90;;;;;;5074494;28;20036;-79
2023/04/30 05:59:44;;;;;;;12.70;8.50;;;14.60;99.90;;;;;;5090309;28;20039;-80
2023/04/30 06:02:10;;;;;;;13.10;10.27;;;14.60;99.90;;;;;;5073516;28;20028;-81
2023/04/30 06:04:36;;;;;;;10.85;8.80;;;14.60;99.90;;;;;;5073288;28;20049;-80
2023/04/30 06:07:02;;;;;;;12.38;9.10;;;14.70;99.90;;;;;;5072969;28;20459;-81
2023/04/30 06:09:28;;;;;;;11.85;9.30;;;14.70;99.90;;;;;;5074613;28;20020;-81
2023/04/30 06:11:54;;;;;;;17.90;9.10;;;14.80;99.90;;;;;;5073013;28;20102;-81
2023/04/30 06:14:21;;;;;;;12.52;9.55;;;14.90;99.90;;;;;;5072242;28;20052;-80
2023/04/30 06:16:48;;;;;;;12.48;9.27;;;15.00;99.90;;;;;;5072996;28;20082;-79
2023/04/30 06:19:14;;;;;;;11.10;8.07;;;15.00;99.90;;;;;;5072864;28;20111;-80
2023/04/30 06:21:42;;;;;;;14.27;9.95;;;15.00;99.90;;;;;;5073222;28;20104;-80
2023/04/30 06:24:08;;;;;;;16.38;9.55;;;15.20;99.90;;;;;;5074352;28;20032;-81
2023/04/30 06:26:34;;;;;;;11.48;8.48;;;15.40;99.90;;;;;;5072638;28;20074;-81
2023/04/30 06:28:59;;;;;;;14.07;9.00;;;15.40;99.90;;;;;;5074204;28;20063;-83
2023/04/30 06:31:25;;;;;;;10.98;8.75;;;15.40;99.90;;;;;;5072489;28;20447;-80
2023/04/30 06:33:51;;;;;;;10.25;8.35;;;15.60;99.90;;;;;;5072958;28;20039;-83
2023/04/30 06:36:18;;;;;;;10.07;8.27;;;15.60;99.90;;;;;;5072197;28;20025;-82
2023/04/30 06:38:45;;;;;;;13.35;8.98;;;15.80;99.90;;;;;;5074365;28;20017;-81
2023/04/30 06:41:12;;;;;;;14.30;8.20;;;15.90;99.90;;;;;;5072242;28;20055;-82
2023/04/30 06:43:38;;;;;;;11.48;9.35;;;;;;;;;;5072767;28;20040;-82
2023/04/30 06:46:08;;;;;;;16.10;9.98;;;16.10;99.90;;;;;;5072499;28;20127;-83
2023/04/30 06:48:33;;;;;;;10.27;8.57;;;16.30;99.90;;;;;;5065028;28;20036;-81
2023/04/30 06:50:59;;;;;;;10.75;8.55;;;16.50;99.90;;;;;;5073344;28;20107;-81
2023/04/30 06:53:25;;;;;;;14.95;7.63;;;16.60;99.90;;;;;;5072473;28;20086;-83
2023/04/30 06:55:51;;;;;;;11.63;8.73;;;16.70;99.90;;;;;;5071500;28;20036;-82
2023/04/30 06:58:20;;;;;;;12.10;8.73;;;16.70;99.90;;;;;;5072120;28;20016;-79
2023/04/30 07:00:45;;;;;;;11.18;8.57;;;16.60;99.90;;;;;;5072324;28;20124;-82
2023/04/30 07:03:11;;;;;;;10.35;7.70;;;16.60;99.90;;;;;;5071471;28;20100;-83
2023/04/30 07:05:37;;;;;;;8.02;7.22;;;16.60;99.90;;;;;;5072503;28;20059;-81
2023/04/30 07:08:05;;;;;;;11.15;8.20;;;16.70;99.90;;;;;;5072218;28;20447;-82
2023/04/30 07:10:31;;;;;;;10.38;8.52;;;16.80;99.90;;;;;;5073718;28;20051;-82
2023/04/30 07:12:58;;;;;;;10.77;8.68;;;16.80;99.90;;;;;;5072581;28;20052;-81
2023/04/30 07:15:24;;;;;;;10.02;8.32;;;17.00;99.90;;;;;;5072093;28;20068;-83
2023/04/30 07:17:49;;;;;;;13.07;7.72;;;17.00;99.90;;;;;;5071770;28;20442;-81
2023/04/30 07:20:15;;;;;;;9.25;8.05;;;17.20;99.90;;;;;;5073101;28;20028;-82
2023/04/30 07:22:45;;;;;;;9.18;8.15;;;17.30;99.90;;;;;;5070983;28;20021;-84
2023/04/30 07:25:12;;;;;;;9.50;8.38;;;17.50;99.90;;;;;;5071650;28;20081;-85
2023/04/30 07:27:39;;;;;;;8.52;7.72;;;17.80;99.90;;;;;;5072558;28;20451;-84
2023/04/30 07:30:05;;;;;;;9.77;7.60;;;18.10;99.90;;;;;;5075132;28;20016;-86
2023/04/30 07:32:32;;;;;;;9.57;8.68;;;18.30;99.90;;;;;;5075832;28;20025;-82
2023/04/30 07:34:58;;;;;;;9.88;8.88;;;18.30;99.90;;;;;;5075561;28;20368;-85
2023/04/30 07:37:24;;;;;;;9.23;8.43;;;18.20;99.90;;;;;;5075308;28;20074;-85
2023/04/30 07:39:50;;;;;;;9.35;8.38;;;18.00;99.90;;;;;;5077280;28;20027;-81
2023/04/30 07:42:16;;;;;;;15.45;8.40;;;18.00;99.90;;;;;;5076142;28;20380;-84
2023/04/30 07:44:41;;;;;;;11.77;8.60;;;18.00;99.90;;;;;;5074986;28;20447;-84
2023/04/30 07:47:08;;;;;;;10.25;8.73;;;17.90;99.90;;;;;;5074204;28;20098;-83
2023/04/30 07:49:34;;;;;;;11.30;9.15;;;17.60;99.90;;;;;;5075297;28;20021;-81
2023/04/30 07:52:00;;;;;;;12.68;8.25;;;17.50;99.90;;;;;;5075128;28;20023;-82
2023/04/30 07:54:26;;;;;;;11.30;8.93;;;18.00;99.90;;;;;;5076813;28;20024;-84
2023/04/30 07:56:52;;;;;;;10.85;8.57;;;18.40;99.90;;;;;;5076303;28;20029;-81
2023/04/30 07:59:20;;;;;;;14.43;9.05;;;18.70;99.90;;;;;;5077028;28;20405;-84
2023/04/30 08:01:46;;;;;;;9.65;8.65;;;18.90;99.90;;;;;;5077370;28;20111;-83
2023/04/30 08:04:12;;;;;;;10.77;8.52;;;19.20;99.90;;;;;;5074108;28;20089;-83
2023/04/30 08:06:38;;;;;;;11.95;8.93;;;19.30;99.90;;;;;;5073395;28;20477;-82
2023/04/30 08:09:03;;;;;;;11.80;8.75;;;19.20;99.90;;;;;;5074904;28;20025;-81
2023/04/30 08:11:29;;;;;;;10.20;8.88;;;19.20;99.90;;;;;;5075101;28;20587;-83
2023/04/30 08:13:55;;;;;;;9.75;8.52;;;19.20;99.90;;;;;;5076420;28;20024;-82
2023/04/30 08:16:21;;;;;;;11.32;9.07;;;18.80;99.80;;;;;;5075601;28;20028;-82
2023/04/30 08:18:48;;;;;;;10.77;8.30;;;18.70;99.90;;;;;;5074658;28;20447;-83
2023/04/30 08:21:15;;;;;;;15.85;8.55;;;18.40;99.90;;;;;;5073523;28;20451;-81
2023/04/30 08:23:41;;;;;;;11.23;8.02;;;18.20;99.90;;;;;;5075784;28;20356;-83
2023/04/30 08:26:06;;;;;;;12.70;8.30;;;18.10;99.90;;;;;;5075962;28;20036;-82
2023/04/30 08:28:32;;;;;;;10.68;8.95;;;18.00;99.90;;;;;;5075282;28;20029;-82
2023/04/30 08:30:58;;;;;;;8.80;7.90;;;18.00;99.90;;;;;;5076238;28;20364;-83
2023/04/30 08:33:24;;;;;;;12.45;7.75;;;18.20;99.90;;;;;;5076170;28;20016;-83
2023/04/30 08:35:50;;;;;;;9.85;8.85;;;18.40;99.90;;;;;;5075027;28;20524;-82
2023/04/30 08:38:16;;;;;;;10.95;8.45;;;18.60;99.90;;;;;;5075145;28;20066;-84
2023/04/30 08:40:51;;;;;;;9.18;8.25;;;18.80;99.90;;;;;;5073508;28;20086;-85
2023/04/30 08:43:19;;;;;;;11.50;8.65;;;18.70;99.90;;;;;;5074548;28;20044;-82
2023/04/30 08:45:45;;;;;;;9.30;8.30;;;18.70;99.90;;;;;;5075223;28;20047;-81
2023/04/30 08:48:13;;;;;;;11.75;8.75;;;18.80;99.90;;;;;;5075922;28;20050;-82
2023/04/30 08:50:39;;;;;;;13.63;8.45;;;19.00;99.90;;;;;;5074893;28;20025;-81
2023/04/30 08:53:09;;;;;;;9.00;8.02;;;19.20;99.90;;;;;;5074393;28;20027;-84
2023/04/30 08:55:38;;;;;;;9.95;8.30;;;19.40;99.90;;;;;;5074840;28;20036;-81
2023/04/30 08:58:04;;;;;;;16.23;8.50;;;19.60;99.90;;;;;;5075718;28;20476;-84
2023/04/30 09:00:32;;;;;;;9.73;7.72;;;19.70;99.90;;;;;;5074621;28;20083;-82
2023/04/30 09:02:59;;;;;;;12.73;8.45;;;19.90;99.90;;;;;;5074564;28;20021;-84
2023/04/30 09:05:25;;;;;;;9.73;8.68;;;19.90;99.90;;;;;;5075871;28;20073;-84
2023/04/30 09:07:51;;;;;;;11.98;9.35;;;20.40;99.90;;;;;;5074302;28;20119;-81
2023/04/30 09:10:21;;;;;;;8.95;7.95;;;20.70;96.60;;;;;;5075801;28;20443;-83
2023/04/30 09:13:02;;;;;;;11.88;9.60;;;21.00;98.50;;;;;;5075630;28;20027;-82
2023/04/30 09:15:29;;;;;;;11.63;8.95;;;21.20;93.90;;;;;;5073175;28;20032;-83
2023/04/30 09:18:18;;;;;;;10.38;8.05;;;;;;;;;;5057651;28;20028;-81
2023/04/30 09:20:57;;;;;;;8.88;7.50;;;;;;;;;;5074426;28;20024;-83
2023/04/30 09:23:24;;;;;;;10.18;7.53;;;;;;;;;;5075494;28;20016;-83
2023/04/30 09:25:50;;;;;;;10.13;7.63;;;;;;;;;;5074240;28;20115;-81
2023/04/30 09:28:16;;;;;;;9.23;8.05;;;;;;;;;;5073773;28;20021;-83
2023/04/30 09:30:43;;;;;;;8.77;7.90;;;;;;;;;;5073700;28;20070;-81
2023/04/30 09:33:09;;;;;;;7.53;6.88;;;;;;;;;;5074964;28;20012;-81
2023/04/30 09:35:36;;;;;;;7.85;7.10;;;;;;;;;;5074994;28;20060;-83
2023/04/30 09:38:03;;;;;;;7.90;7.10;;;;;;;;;;5075217;28;20043;-82
2023/04/30 09:40:32;;;;;;;7.65;6.95;;;;;;;;;;5073884;28;20023;-82
2023/04/30 09:42:59;;;;;;;8.48;7.65;;;;;;;;;;5072916;28;20375;-81
2023/04/30 09:45:25;;;;;;;13.15;9.65;;;;;;;;;;5075331;28;20402;-82
2023/04/30 09:47:54;;;;;;;10.55;8.13;;;;;;;;;;5073738;28;20459;-81
2023/04/30 09:50:20;;;;;;;7.65;6.93;;;;;;;;;;5073317;28;20029;-82
2023/04/30 09:52:53;;;;;;;8.75;7.85;;;;;;;;;;5074186;28;20370;-82
2023/04/30 09:55:20;;;;;;;8.15;7.20;;;;;;;;;;5073508;28;20111;-82
2023/04/30 09:57:47;;;;;;;7.57;6.78;;;21.60;69.20;;;;;;5073259;28;20459;-83
2023/04/30 10:00:15;;;;;;;7.78;7.05;;;21.50;70.80;;;;;;5074902;28;20020;-81
2023/04/30 10:02:41;;;;;;;11.02;6.85;;;;;;;;;;5072613;28;20074;-82
2023/04/30 10:05:07;;;;;;;6.40;5.90;;;;;;;;;;5063687;28;20031;-81
2023/04/30 10:07:35;;;;;;;6.30;5.40;;;;;;;;;;5067244;28;20024;-81
2023/04/30 10:10:09;;;;;;;6.78;5.78;;;;;;;;;;5074170;28;20108;-81
2023/04/30 10:12:50;;;;;;;7.50;6.80;;;;;;;;;;5073190;28;20071;-81
2023/04/30 10:15:28;;;;;;;6.88;6.28;;;;;;;;;;5074434;28;20450;-80
2023/04/30 10:18:14;;;;;;;6.90;6.20;;;;;;;;;;5074397;28;20028;-81
2023/04/30 10:20:40;;;;;;;6.47;5.97;;;;;;;;;;5072792;28;20009;-81
2023/04/30 10:23:07;;;;;;;9.38;7.05;;;;;;;;;;5073087;28;20115;-82
2023/04/30 10:25:33;;;;;;;9.13;6.80;;;;;;;;;;5074303;28;20019;-81
2023/04/30 10:27:59;;;;;;;6.78;6.28;;;;;;;;;;5074413;28;20343;-82
2023/04/30 10:30:26;;;;;;;5.75;5.20;;;;;;;;;;5074226;28;20013;-82
2023/04/30 10:33:00;;;;;;;6.13;5.63;;;;;;;;;;5072513;28;20021;-81
2023/04/30 10:35:28;;;;;;;6.88;6.20;;;;;;;;;;5072745;28;20043;-82
2023/04/30 10:38:03;;;;;;;6.75;6.15;;;;;;;;;;5072669;28;20024;-83
2023/04/30 10:40:29;;;;;;;6.82;6.22;;;;;;;;;;5074152;28;20070;-83
2023/04/30 10:42:55;;;;;;;6.07;5.57;;;;;;;;;;5074300;28;20072;-82
2023/04/30 10:45:37;;;;;;;6.25;5.75;;;;;;;;;;5072425;28;20094;-81
2023/04/30 10:48:04;;;;;;;6.03;5.53;;;;;;;;;;5073659;28;20402;-81
2023/04/30 10:50:30;;;;;;;6.22;5.63;;;;;;;;;;5072780;28;20336;-81
2023/04/30 10:53:03;;;;;;;6.38;5.75;;;;;;;;;;5073550;28;20021;-81
2023/04/30 10:55:30;;;;;;;6.45;5.88;;;;;;;;;;5072484;28;20025;-81
2023/04/30 10:57:57;;;;;;;5.50;5.00;;;;;;;;;;5072693;28;20024;-82
2023/04/30 11:00:27;;;;;;;5.88;5.38;;;;;;;;;;5072226;28;20028;-80
2023/04/30 11:02:57;;;;;;;5.97;5.47;;;;;;;;;;5072147;28;20066;-80
2023/04/30 11:05:42;;;;;;;5.90;5.40;;;;;;;;;;5072272;28;20028;-80
2023/04/30 11:08:11;;;;;;;6.15;5.70;;;;;;;;;;5072204;28;20379;-81
2023/04/30 11:10:37;;;;;;;6.40;5.65;;;;;;;;;;5074031;28;20021;-83
2023/04/30 11:13:09;;;;;;;7.68;5.35;;;;;;;;;;5073355;28;20017;-81
2023/04/30 11:15:42;;;;;;;6.15;5.70;;;;;;;;;;5053847;28;20356;-82
2023/04/30 11:18:08;;;;;;;6.75;6.20;;;;;;;;;;5072440;28;20025;-79
2023/04/30 11:20:40;;;;;;;7.10;6.50;;;;;;;;;;5073077;28;20071;-80
2023/04/30 11:23:06;;;;;;;;;;;;;;;;;;5073034;28;20028;-81
2023/04/30 11:25:40;;;;;;;6.05;5.65;;;;;;;;;;5073601;28;19915;-80
2023/04/30 11:28:06;;;;;;;5.97;5.47;;;;;;;;;;5071997;28;20020;-81
2023/04/30 11:30:33;;;;;;;6.30;5.80;;;;;;;;;;5072223;28;20056;-81
2023/04/30 11:33:00;;;;;;;6.63;6.05;;;;;;;;;;5073459;28;20016;-80
2023/04/30 11:35:28;;;;;;;6.38;5.85;;;;;;;;;;5071862;28;20508;-81
2023/04/30 11:37:56;;;;;;;6.25;5.78;;;;;;;;;;5072168;28;20336;-80
2023/04/30 11:40:22;;;;;;;5.55;5.15;;;;;;;;;;5073719;28;20036;-79
2023/04/30 11:42:49;;;;;;;6.05;5.55;;;;;;;;;;5071551;28;20048;-79
2023/04/30 11:45:16;;;;;;;7.05;5.80;;;;;;;;;;5072121;28;20352;-81
2023/04/30 11:47:46;;;;;;;6.45;5.85;;;;;;;;;;5072096;28;20021;-81
2023/04/30 11:50:14;;;;;;;8.10;5.90;;;;;;;;;;5073011;28;20036;-82
2023/04/30 11:52:40;;;;;;;7.00;6.40;;;;;;;;;;5071999;28;20055;-80
2023/04/30 11:55:14;;;;;;;6.72;6.15;;;;;;;;;;5073038;28;20035;-80
2023/04/30 11:57:43;;;;;;;6.15;5.55;;;;;;;;;;5072106;28;20027;-81
2023/04/30 12:00:14;;;;;;;6.40;5.90;;;;;;;;;;5072010;28;20021;-80
2023/04/30 12:02:41;;;;;;;5.88;5.47;;;;;;;;;;5071988;28;20021;-81
2023/04/30 12:05:17;;;;;;;6.82;6.10;;;;;;;;;;5073243;28;20028;-81
2023/04/30 12:07:50;;;;;;;6.78;6.28;;;;;;;;;;5072300;28;20025;-82
2023/04/30 12:10:19;;;;;;;6.80;6.20;;;;;;;;;;5073104;28;20024;-80
2023/04/30 12:12:46;;;;;;;6.93;6.43;;;;;;;;;;5071821;28;20024;-79
2023/04/30 12:15:13;;;;;;;6.30;5.85;;;;;;;;;;5073812;28;20067;-81
2023/04/30 12:17:40;;;;;;;6.53;5.97;;;;;;;;;;5076609;28;20066;-80
2023/04/30 12:20:07;;;;;;;6.65;5.93;;;;;;;;;;5076848;28;20095;-79
2023/04/30 12:22:33;;;;;;;6.78;6.28;;;;;;;;;;5075407;28;20027;-79
2023/04/30 12:25:01;;;;;;;6.18;5.68;;;;;;;;;;5076326;28;20028;-79
2023/04/30 12:27:27;;;;;;;6.20;5.68;;;;;;;;;;5076348;28;20104;-80
2023/04/30 12:29:53;;;;;;;7.45;6.82;;;;;;;;;;5076664;28;20078;-81
2023/04/30 12:32:21;;;;;;;9.32;6.38;;;;;;;;;;5076760;28;20128;-80
2023/04/30 12:34:47;;;;;;;6.65;6.15;;;;;;;;;;5076405;28;20055;-80
2023/04/30 12:37:16;;;;;;;6.38;5.90;;;;;;;;;;5075969;28;20039;-81
2023/04/30 12:39:42;;;;;;;6.60;5.97;;;;;;;;;;5075209;28;20012;-79
2023/04/30 12:42:10;;;;;;;6.18;5.68;;;;;;;;;;5074681;28;20044;-79
2023/04/30 12:44:43;;;;;;;6.60;6.18;;;;;;;;;;5076037;28;20024;-80
2023/04/30 12:47:10;;;;;;;6.15;5.55;;;;;;;;;;5076075;28;20047;-79
2023/04/30 12:49:36;;;;;;;6.10;5.60;;;;;;;;;;5074901;28;20044;-79
2023/04/30 12:52:02;;;;;;;6.97;6.38;;;;;;;;;;5075500;28;20370;-78
2023/04/30 12:54:29;;;;;;;6.22;5.75;;;;;;;;;;5076271;28;20032;-80
2023/04/30 12:57:08;;;;;;;6.72;6.30;;;;;;;;;;5074770;28;20038;-80
2023/04/30 12:59:54;;;;;;;7.53;6.93;;;;;;;;;;5076025;28;20505;-81
2023/04/30 13:02:23;;;;;;;6.20;5.80;;;;;;;;;;5060677;28;20511;-81
2023/04/30 13:04:50;;;;;;;7.03;6.53;;;;;;;;;;5067534;28;20029;-81
2023/04/30 13:07:16;;;;;;;6.63;6.18;;;;;;;;;;5071905;28;20024;-81
2023/04/30 13:09:42;;;;;;;8.30;7.50;;;;;;;;;;5075780;28;20020;-79